ROTAER D-AMDT 27/21 Ver mudanças

Caruaru ( SNRU ) / CARUARU, PE 08 17 04S/036 00 39W
AD PUB 3W UTC-3 HJ 576 (1890)

13 - ( 1800x30 ASPH 30/F/A/X/U ) - 31

SBRE (CINDACTA 3)
SER - S1  

RMK -

OBSTÁCULO DE AERÓDROMO
  1. OBST montado (casa) DIST 101M da THR 31, AZM 130DEG, ELEV 1848FT
CARACTERÍSTICAS FÍSICAS DAS PISTAS
  1. RWY 31 FST 112M CLSD devido OBST
REGULAMENTOS PARA TRÁFEGO LOCAL
  1. OBS ACFT e planadores em FLT de instrução nas VCY
TEMP (3)
INFOTEMP 2319R/21
OBST (TORRE) LGTD INTERFERINDO NO PLANO BASICO DE ZONA DE PROTECAO DO AD COORD 081705.00S/ 0355836.00W ALT 664M (2178,45FT)

Duração: 29/11/21 21:08 a 27/02/22 23:59 UTC | Divulgação: 29/11/2021 21:08

INFOTEMP 1246R/21
OBST (TORRE) LGTD VIOLANDO O PLANO BASICO DE ZONA DE PROTECAO DO AD COORD 081704.80S/0355836.40W ALT 648,00M (2125,96FT)

Duração: 30/06/21 17:49 a 28/06/22 23:59 UTC | Divulgação: 30/06/2021 17:49

INFOTEMP 1108R/21
RWY 13/31 CLSD DEVIDO VISTORIA OPERACIONAL DLY 0830-0900"

Duração: 28/06/21 08:30 a 31/12/22 09:00 UTC | Divulgação: 11/06/2021 23:52


Suplementos AIP (0)

NOTAM (0)

Nascer/Por do Sol

08:21

20:51


METAR

262000Z AUTO 12011KT 090V150 9999 FEW025 SCT030 26/21 Q1014=

TAF


Cartas (0)


Rotas Preferenciais (0)